Time;durP1;ratioP1;P1;durP2;ratioP2;P2;SDS_P1;SDS_P2;PMS_P1;PMS_P2;Temp;Humidity;BMP_temperature;BMP_pressure;BME280_temperature;BME280_humidity;BME280_pressure;Samples;Min_cycle;Max_cycle;Signal;HPM_P1;HPM_P2
2023/11/29 00:00:36;;;;;;;12.30;10.17;;;0.40;99.90;;;;;;5012745;28;20556;-70
2023/11/29 00:03:01;;;;;;;13.90;10.23;;;0.40;95.00;;;;;;5013117;28;20180;-69
2023/11/29 00:05:27;;;;;;;10.97;9.23;;;0.50;99.90;;;;;;5013333;28;20338;-69
2023/11/29 00:07:53;;;;;;;12.50;10.23;;;0.50;99.90;;;;;;5013596;28;20522;-69
2023/11/29 00:10:18;;;;;;;11.30;10.07;;;0.60;1.00;;;;;;5013147;28;20195;-69
2023/11/29 00:12:44;;;;;;;11.27;10.03;;;0.70;1.00;;;;;;5013106;28;20591;-69
2023/11/29 00:15:11;;;;;;;11.30;9.97;;;0.70;99.90;;;;;;5012792;28;20207;-69
2023/11/29 00:17:37;;;;;;;11.20;10.10;;;0.70;1.00;;;;;;5012990;28;20196;-69
2023/11/29 00:20:03;;;;;;;11.43;10.20;;;0.70;1.00;;;;;;5012957;28;20268;-69
2023/11/29 00:22:29;;;;;;;12.10;10.17;;;0.70;1.00;;;;;;5012949;28;20203;-69
2023/11/29 00:24:55;;;;;;;11.07;9.93;;;0.70;1.00;;;;;;5012535;28;20204;-70
2023/11/29 00:27:21;;;;;;;10.87;9.40;;;0.70;1.00;;;;;;5012942;28;20179;-70
2023/11/29 00:29:48;;;;;;;13.37;10.80;;;0.70;1.00;;;;;;5012565;28;20242;-69
2023/11/29 00:32:13;;;;;;;12.30;10.40;;;0.70;36.00;;;;;;5012811;28;20178;-69
2023/11/29 00:34:39;;;;;;;10.57;9.47;;;0.70;68.20;;;;;;5012414;28;20286;-69
2023/11/29 00:37:04;;;;;;;11.57;9.53;;;0.70;99.90;;;;;;5012530;28;20640;-69
2023/11/29 00:39:31;;;;;;;10.70;9.60;;;0.70;99.90;;;;;;5012287;28;20172;-69
2023/11/29 00:41:56;;;;;;;10.70;9.47;;;0.70;99.90;;;;;;5012448;28;20187;-69
2023/11/29 00:44:22;;;;;;;9.97;9.00;;;0.70;99.90;;;;;;5012516;28;20318;-69
2023/11/29 00:46:48;;;;;;;11.03;9.80;;;0.80;99.90;;;;;;5012686;28;20196;-69
2023/11/29 00:49:17;;;;;;;10.67;9.40;;;0.80;99.90;;;;;;5012555;28;20181;-70
2023/11/29 00:51:42;;;;;;;10.20;9.07;;;0.90;1.00;;;;;;5011989;28;20771;-70
2023/11/29 00:54:08;;;;;;;11.93;10.27;;;0.90;1.00;;;;;;5012505;28;20255;-69
2023/11/29 00:56:33;;;;;;;9.63;8.50;;;0.90;99.90;;;;;;5011456;28;20207;-70
2023/11/29 00:58:59;;;;;;;10.43;9.33;;;0.90;99.90;;;;;;5011895;28;20618;-70
2023/11/29 01:01:25;;;;;;;10.27;9.27;;;1.00;99.90;;;;;;5011961;28;20172;-69
2023/11/29 01:03:50;;;;;;;11.20;9.47;;;0.90;99.90;;;;;;5012022;28;20658;-69
2023/11/29 01:06:16;;;;;;;9.50;8.67;;;1.00;99.90;;;;;;5011584;28;20255;-70
2023/11/29 01:08:43;;;;;;;10.03;9.03;;;0.90;99.90;;;;;;5011937;28;20175;-69
2023/11/29 01:11:09;;;;;;;8.93;7.97;;;1.00;1.00;;;;;;5011685;28;20179;-69
2023/11/29 01:13:34;;;;;;;11.03;9.27;;;1.00;99.90;;;;;;5011795;28;20721;-69
2023/11/29 01:16:00;;;;;;;11.77;8.90;;;1.00;99.90;;;;;;5012144;28;20204;-69
2023/11/29 01:18:27;;;;;;;9.73;8.73;;;1.10;99.90;;;;;;5011947;28;20183;-70
2023/11/29 01:20:53;;;;;;;10.30;9.20;;;1.20;99.90;;;;;;5011422;28;20230;-70
2023/11/29 01:23:19;;;;;;;10.77;9.03;;;1.20;99.90;;;;;;5012048;28;20168;-70
2023/11/29 01:25:45;;;;;;;11.63;9.70;;;1.30;99.90;;;;;;5011817;28;20203;-69
2023/11/29 01:28:10;;;;;;;9.20;8.30;;;1.30;99.90;;;;;;5011963;28;20179;-69
2023/11/29 01:30:36;;;;;;;10.37;9.37;;;1.40;1.00;;;;;;5011371;28;20184;-69
2023/11/29 01:33:02;;;;;;;11.07;9.60;;;1.40;1.00;;;;;;5011559;28;20667;-69
2023/11/29 01:35:28;;;;;;;9.63;8.63;;;1.40;99.90;;;;;;5011577;28;20207;-68
2023/11/29 01:37:53;;;;;;;11.40;8.73;;;1.40;99.90;;;;;;5011810;28;20175;-70
2023/11/29 01:40:20;;;;;;;11.20;10.03;;;1.40;99.90;;;;;;5011538;28;20255;-69
2023/11/29 01:42:45;;;;;;;11.83;9.83;;;1.40;99.90;;;;;;5011372;28;20164;-69
2023/11/29 01:45:11;;;;;;;11.00;9.43;;;1.40;99.90;;;;;;5011588;28;20270;-69
2023/11/29 01:47:37;;;;;;;10.83;9.70;;;1.50;99.90;;;;;;5011462;28;20216;-69
2023/11/29 01:50:07;;;;;;;13.20;9.73;;;1.50;1.00;;;;;;5011313;28;20172;-70
2023/11/29 01:52:37;;;;;;;11.37;8.87;;;1.50;1.00;;;;;;5011591;28;20172;-69
2023/11/29 01:55:02;;;;;;;11.73;9.77;;;1.50;1.00;;;;;;5011299;28;20207;-70
2023/11/29 01:57:28;;;;;;;10.43;9.20;;;1.50;1.00;;;;;;5011416;28;20609;-70
2023/11/29 01:59:54;;;;;;;13.03;9.87;;;1.40;1.00;;;;;;5011317;28;20232;-69
2023/11/29 02:02:20;;;;;;;13.87;9.80;;;1.40;1.00;;;;;;5011265;28;20190;-70
2023/11/29 02:04:46;;;;;;;10.67;9.53;;;1.40;17.80;;;;;;5011446;28;20192;-70
2023/11/29 02:07:13;;;;;;;11.17;9.97;;;1.30;99.90;;;;;;5011715;28;20187;-70
2023/11/29 02:09:40;;;;;;;11.10;9.90;;;1.20;99.90;;;;;;5011382;28;20656;-70
2023/11/29 02:12:07;;;;;;;10.97;9.47;;;1.20;21.00;;;;;;5011953;28;20180;-70
2023/11/29 02:14:42;;;;;;;16.37;10.30;;;1.20;1.00;;;;;;5011284;28;20325;-70
2023/11/29 02:17:09;;;;;;;12.80;10.13;;;1.10;3.90;;;;;;5011178;28;20199;-70
2023/11/29 02:19:35;;;;;;;11.50;9.67;;;1.10;99.90;;;;;;5014688;28;20244;-70
2023/11/29 02:22:01;;;;;;;13.33;10.53;;;1.00;99.90;;;;;;5015347;28;20168;-70
2023/11/29 02:24:40;;;;;;;11.47;9.80;;;1.00;1.00;;;;;;5015095;28;20168;-70
2023/11/29 02:27:06;;;;;;;12.87;9.63;;;1.00;1.00;;;;;;5015269;28;20663;-70
2023/11/29 02:29:32;;;;;;;13.30;10.40;;;0.90;1.00;;;;;;5014777;28;20183;-70
2023/11/29 02:31:57;;;;;;;13.60;10.67;;;1.00;1.00;;;;;;5015416;28;20255;-70
2023/11/29 02:34:23;;;;;;;13.70;10.50;;;0.90;1.00;;;;;;5014985;28;20164;-70
2023/11/29 02:36:49;;;;;;;13.87;10.70;;;0.90;1.00;;;;;;5014661;28;20274;-70
2023/11/29 02:39:14;;;;;;;17.00;13.57;;;1.00;1.00;;;;;;5014640;28;20227;-69
2023/11/29 02:41:40;;;;;;;15.53;11.17;;;1.00;1.00;;;;;;5014206;28;20640;-70
2023/11/29 02:44:06;;;;;;;17.33;11.53;;;1.10;15.70;;;;;;5014962;28;20263;-69
2023/11/29 02:46:31;;;;;;;16.20;11.70;;;1.20;43.80;;;;;;5014410;28;20597;-69
2023/11/29 02:48:57;;;;;;;20.00;11.40;;;1.20;25.30;;;;;;5014320;28;20188;-70
2023/11/29 02:51:23;;;;;;;15.63;11.40;;;1.30;1.00;;;;;;5014185;28;20423;-69
2023/11/29 02:53:49;;;;;;;16.97;11.03;;;1.20;1.00;;;;;;5014692;28;20219;-69
2023/11/29 02:56:14;;;;;;;19.90;12.10;;;1.20;1.00;;;;;;5014566;28;20233;-70
2023/11/29 02:58:40;;;;;;;17.13;11.67;;;1.30;76.10;;;;;;5013979;28;20168;-69
2023/11/29 03:01:06;;;;;;;16.97;11.63;;;1.30;95.20;;;;;;5014652;28;20176;-69
2023/11/29 03:03:31;;;;;;;17.03;12.13;;;1.30;97.00;;;;;;5012850;28;20172;-68
2023/11/29 03:05:57;;;;;;;15.47;11.50;;;1.40;99.90;;;;;;5014443;28;20207;-69
2023/11/29 03:08:23;;;;;;;16.40;12.40;;;1.40;99.90;;;;;;5014371;28;20171;-69
2023/11/29 03:10:48;;;;;;;15.63;11.57;;;1.40;99.90;;;;;;5013857;28;20259;-69
2023/11/29 03:13:14;;;;;;;13.50;11.27;;;1.50;99.90;;;;;;5014450;28;20246;-69
2023/11/29 03:15:39;;;;;;;14.33;11.70;;;1.50;99.90;;;;;;5014209;28;20215;-69
2023/11/29 03:18:05;;;;;;;15.37;12.10;;;1.50;99.90;;;;;;5014449;28;20811;-69
2023/11/29 03:20:30;;;;;;;18.00;12.97;;;1.50;99.90;;;;;;5013847;28;20180;-69
2023/11/29 03:22:56;;;;;;;15.40;11.17;;;1.60;99.90;;;;;;5014279;28;20176;-69
2023/11/29 03:25:22;;;;;;;16.57;12.27;;;1.60;99.90;;;;;;5014430;28;20199;-69
2023/11/29 03:27:47;;;;;;;16.83;11.83;;;1.70;99.90;;;;;;5014184;28;20176;-68
2023/11/29 03:30:13;;;;;;;18.07;12.43;;;1.70;99.90;;;;;;5013661;28;20207;-69
2023/11/29 03:32:39;;;;;;;17.47;12.23;;;1.80;99.90;;;;;;5014306;28;20180;-69
2023/11/29 03:35:05;;;;;;;17.43;13.03;;;1.80;99.90;;;;;;5014319;28;20204;-69
2023/11/29 03:37:31;;;;;;;17.77;12.93;;;1.80;99.90;;;;;;5013770;28;20176;-68
2023/11/29 03:39:57;;;;;;;14.37;11.27;;;1.90;87.20;;;;;;5013792;28;20640;-68
2023/11/29 03:42:22;;;;;;;19.83;12.47;;;1.90;57.60;;;;;;5013892;28;20204;-68
2023/11/29 03:44:48;;;;;;;16.67;11.50;;;2.00;37.30;;;;;;5013620;28;20183;-69
2023/11/29 03:47:14;;;;;;;15.10;12.10;;;2.00;8.10;;;;;;5013654;28;20168;-69
2023/11/29 03:49:40;;;;;;;13.77;10.03;;;2.00;2.40;;;;;;5013553;28;20239;-68
2023/11/29 03:52:06;;;;;;;19.67;12.33;;;2.00;1.00;;;;;;5013733;28;20238;-68
2023/11/29 03:54:31;;;;;;;13.10;11.53;;;2.10;13.60;;;;;;5013573;28;20176;-70
2023/11/29 03:56:57;;;;;;;17.33;12.00;;;2.10;1.00;;;;;;5013702;28;20250;-68
2023/11/29 03:59:22;;;;;;;18.60;12.60;;;2.20;1.00;;;;;;5013408;28;20207;-69
2023/11/29 04:01:48;;;;;;;20.00;12.80;;;2.20;1.00;;;;;;5013249;28;20540;-69
2023/11/29 04:04:13;;;;;;;19.27;12.83;;;2.30;1.00;;;;;;5013309;28;20172;-69
2023/11/29 04:06:39;;;;;;;15.83;13.00;;;2.30;1.00;;;;;;5013183;28;20646;-68
2023/11/29 04:09:05;;;;;;;16.53;12.13;;;2.40;1.00;;;;;;5012996;28;20184;-68
2023/11/29 04:11:30;;;;;;;14.17;11.93;;;2.40;1.00;;;;;;5013239;28;20179;-68
2023/11/29 04:13:56;;;;;;;14.50;11.63;;;2.40;99.90;;;;;;5013164;28;20168;-69
2023/11/29 04:16:24;;;;;;;19.67;12.50;;;2.40;1.00;;;;;;5013667;28;20204;-69
2023/11/29 04:18:53;;;;;;;16.03;11.43;;;2.50;99.90;;;;;;5012966;28;20184;-69
2023/11/29 04:21:25;;;;;;;16.10;11.50;;;2.50;1.00;;;;;;5012905;28;20655;-69
2023/11/29 04:23:52;;;;;;;15.70;11.47;;;2.50;99.90;;;;;;5013404;28;20172;-68
2023/11/29 04:26:29;;;;;;;14.80;11.50;;;2.60;99.90;;;;;;5012995;28;20207;-68
2023/11/29 04:28:55;;;;;;;15.73;11.97;;;2.60;99.90;;;;;;5013113;28;20178;-69
2023/11/29 04:31:21;;;;;;;15.43;11.43;;;2.60;99.90;;;;;;5012503;28;20168;-68
2023/11/29 04:33:46;;;;;;;17.70;11.80;;;2.60;99.90;;;;;;5012847;28;20686;-68
2023/11/29 04:36:12;;;;;;;15.43;10.30;;;2.60;99.90;;;;;;5012789;28;20254;-68
2023/11/29 04:38:38;;;;;;;15.73;11.43;;;2.70;99.90;;;;;;5012666;28;20234;-68
2023/11/29 04:41:04;;;;;;;16.27;11.93;;;2.60;99.90;;;;;;5012036;28;20501;-69
2023/11/29 04:43:30;;;;;;;18.17;12.10;;;2.60;1.00;;;;;;5011783;28;20176;-68
2023/11/29 04:45:56;;;;;;;14.27;11.47;;;2.70;1.00;;;;;;5012729;28;20775;-69
2023/11/29 04:48:22;;;;;;;13.87;11.07;;;2.60;1.00;;;;;;5012576;28;20272;-68
2023/11/29 04:50:48;;;;;;;12.87;9.53;;;2.60;1.00;;;;;;5011858;28;20168;-69
2023/11/29 04:53:14;;;;;;;9.43;8.53;;;2.60;1.00;;;;;;5012104;28;20205;-69
2023/11/29 04:55:39;;;;;;;16.60;11.03;;;2.70;1.00;;;;;;5012439;28;20211;-69
2023/11/29 04:58:05;;;;;;;13.80;10.20;;;2.70;1.00;;;;;;5012736;28;20679;-69
2023/11/29 05:00:31;;;;;;;17.87;12.63;;;2.80;1.00;;;;;;5010953;28;20175;-69
2023/11/29 05:02:57;;;;;;;12.77;11.00;;;2.80;1.00;;;;;;5012272;28;20175;-69
2023/11/29 05:05:23;;;;;;;12.73;10.53;;;2.90;1.00;;;;;;5012238;28;20192;-70
2023/11/29 05:07:49;;;;;;;14.73;10.50;;;2.90;1.00;;;;;;5012467;28;20180;-69
2023/11/29 05:10:14;;;;;;;18.47;12.23;;;2.90;99.90;;;;;;5011807;28;20191;-68
2023/11/29 05:12:41;;;;;;;13.63;10.13;;;2.90;1.00;;;;;;5012125;28;20192;-69
2023/11/29 05:15:07;;;;;;;13.07;10.33;;;2.90;1.00;;;;;;5011740;28;20212;-69
2023/11/29 05:17:33;;;;;;;14.93;11.00;;;2.90;1.00;;;;;;5011930;28;20192;-68
2023/11/29 05:19:59;;;;;;;20.50;13.13;;;2.90;1.00;;;;;;5011788;28;20182;-69
2023/11/29 05:22:24;;;;;;;17.67;11.03;;;2.80;1.00;;;;;;5011953;28;20196;-69
2023/11/29 05:24:50;;;;;;;14.63;11.73;;;2.80;1.00;;;;;;5011792;28;20183;-69
2023/11/29 05:27:16;;;;;;;16.67;10.87;;;2.80;1.00;;;;;;5011616;28;20210;-69
2023/11/29 05:29:41;;;;;;;15.00;11.83;;;2.70;1.00;;;;;;5011589;28;20267;-69
2023/11/29 05:32:07;;;;;;;15.53;10.70;;;2.70;1.00;;;;;;5011656;28;20188;-70
2023/11/29 05:34:33;;;;;;;15.70;11.57;;;2.60;1.00;;;;;;5011966;28;20173;-69
2023/11/29 05:36:59;;;;;;;14.30;11.57;;;2.60;1.00;;;;;;5011689;28;20196;-69
2023/11/29 05:39:25;;;;;;;17.60;12.03;;;2.60;1.00;;;;;;5012381;28;20259;-69
2023/11/29 05:41:50;;;;;;;14.63;11.60;;;2.50;1.00;;;;;;5011212;28;20180;-69
2023/11/29 05:44:16;;;;;;;16.07;12.17;;;2.50;5.00;;;;;;5011976;28;20179;-69
2023/11/29 05:46:42;;;;;;;17.53;11.33;;;2.50;1.20;;;;;;5011625;28;20200;-68
2023/11/29 05:49:08;;;;;;;17.30;12.60;;;2.60;1.00;;;;;;5011692;28;20184;-69
2023/11/29 05:51:35;;;;;;;16.53;11.47;;;2.60;1.00;;;;;;5011192;28;20176;-69
2023/11/29 05:54:01;;;;;;;15.70;11.43;;;2.60;1.00;;;;;;5011181;28;20184;-69
2023/11/29 05:56:27;;;;;;;16.57;11.73;;;2.60;1.00;;;;;;5011500;28;20243;-69
2023/11/29 05:58:53;;;;;;;14.73;10.70;;;2.60;1.00;;;;;;5011472;28;20259;-69
2023/11/29 06:01:19;;;;;;;15.13;12.17;;;2.70;1.00;;;;;;5011251;28;20259;-68
2023/11/29 06:03:45;;;;;;;15.90;11.57;;;2.70;1.00;;;;;;5011352;28;20219;-69
2023/11/29 06:06:11;;;;;;;14.07;11.60;;;2.80;1.00;;;;;;5011041;28;20191;-70
2023/11/29 06:08:37;;;;;;;12.87;11.30;;;2.80;1.00;;;;;;5011232;28;20184;-71
2023/11/29 06:11:07;;;;;;;15.03;11.03;;;2.80;1.00;;;;;;5011218;28;20678;-69
2023/11/29 06:13:33;;;;;;;16.90;11.67;;;2.90;1.00;;;;;;5011294;28;20176;-69
2023/11/29 06:15:59;;;;;;;12.73;9.50;;;2.90;1.00;;;;;;5010901;28;20666;-68
2023/11/29 06:18:25;;;;;;;14.70;10.83;;;2.90;1.00;;;;;;5011422;28;20588;-69
2023/11/29 06:20:51;;;;;;;12.80;10.00;;;2.90;1.00;;;;;;5011628;28;20180;-68
2023/11/29 06:23:17;;;;;;;12.63;10.90;;;2.80;1.00;;;;;;5010928;28;20329;-69
2023/11/29 06:25:43;;;;;;;15.63;11.07;;;2.80;1.00;;;;;;5011179;28;20283;-69
2023/11/29 06:28:08;;;;;;;15.47;10.73;;;2.80;1.00;;;;;;5011312;28;20259;-68
2023/11/29 06:30:34;;;;;;;13.77;12.03;;;2.70;1.00;;;;;;5010798;28;20181;-69
2023/11/29 06:33:00;;;;;;;13.77;10.50;;;2.70;6.60;;;;;;5011084;28;20230;-68
2023/11/29 06:35:25;;;;;;;13.07;11.17;;;2.60;48.00;;;;;;5010960;28;20212;-69
2023/11/29 06:37:51;;;;;;;15.40;11.80;;;2.50;94.20;;;;;;5010802;28;20185;-69
2023/11/29 06:40:17;;;;;;;11.60;9.23;;;2.50;99.90;;;;;;5011011;28;20230;-69
2023/11/29 06:42:49;;;;;;;13.43;11.37;;;2.40;99.90;;;;;;5010618;28;20675;-69
2023/11/29 06:45:19;;;;;;;13.43;11.13;;;2.40;99.90;;;;;;5010541;28;20319;-69
2023/11/29 06:47:45;;;;;;;11.47;10.27;;;2.30;99.90;;;;;;5010806;28;20678;-69
2023/11/29 06:50:10;;;;;;;13.97;10.93;;;2.30;99.90;;;;;;5006102;28;20222;-70
2023/11/29 06:52:37;;;;;;;12.57;11.07;;;2.30;99.90;;;;;;5010509;28;20203;-69
2023/11/29 06:55:02;;;;;;;18.50;11.83;;;2.20;99.90;;;;;;5010317;28;20212;-69
2023/11/29 06:57:28;;;;;;;11.97;10.50;;;2.20;99.90;;;;;;5010825;28;20187;-69
2023/11/29 06:59:54;;;;;;;16.27;11.13;;;2.20;99.90;;;;;;5010470;28;20186;-69
2023/11/29 07:02:19;;;;;;;11.63;10.43;;;2.20;99.90;;;;;;5011068;28;20226;-69
2023/11/29 07:04:45;;;;;;;13.23;11.93;;;2.10;99.90;;;;;;5011356;28;20204;-69
2023/11/29 07:07:11;;;;;;;14.20;10.67;;;2.10;99.90;;;;;;5014365;28;20218;-69
2023/11/29 07:09:37;;;;;;;12.43;10.70;;;2.10;99.90;;;;;;5014072;28;20648;-69
2023/11/29 07:12:05;;;;;;;9.43;8.57;;;2.20;99.90;;;;;;5014864;28;20177;-69
2023/11/29 07:14:30;;;;;;;12.63;11.23;;;2.20;99.90;;;;;;5012566;28;20234;-68
2023/11/29 07:16:56;;;;;;;13.87;10.87;;;2.20;99.90;;;;;;5013931;28;20719;-68
2023/11/29 07:19:22;;;;;;;14.53;11.30;;;2.30;99.90;;;;;;5013922;28;20226;-68
2023/11/29 07:21:47;;;;;;;13.47;11.77;;;2.20;99.90;;;;;;5013548;28;20180;-69
2023/11/29 07:24:13;;;;;;;16.13;12.37;;;2.20;99.90;;;;;;5014232;28;20176;-68
2023/11/29 07:26:39;;;;;;;19.53;12.50;;;2.20;99.90;;;;;;5013695;28;20204;-69
2023/11/29 07:29:05;;;;;;;18.83;11.77;;;2.20;99.90;;;;;;5013742;28;20258;-68
2023/11/29 07:31:33;;;;;;;14.97;11.97;;;2.30;99.90;;;;;;5013549;28;20180;-69
2023/11/29 07:33:59;;;;;;;13.20;11.17;;;2.40;99.90;;;;;;5012736;28;20180;-69
2023/11/29 07:36:24;;;;;;;17.60;12.00;;;2.50;99.90;;;;;;5013621;28;20597;-68
2023/11/29 07:38:50;;;;;;;13.43;11.60;;;2.60;99.90;;;;;;5013740;28;20183;-70
2023/11/29 07:41:17;;;;;;;16.67;12.20;;;2.80;99.90;;;;;;5014007;28;20183;-69
2023/11/29 07:43:43;;;;;;;8.23;7.53;;;2.90;99.90;;;;;;5013850;28;20602;-69
2023/11/29 07:46:09;;;;;;;17.03;12.53;;;3.00;99.90;;;;;;5013831;28;20275;-69
2023/11/29 07:48:35;;;;;;;13.60;12.20;;;3.00;99.90;;;;;;5013422;28;20678;-69
2023/11/29 07:51:02;;;;;;;17.73;12.10;;;3.00;99.90;;;;;;5013446;28;20203;-70
2023/11/29 07:53:28;;;;;;;15.83;11.33;;;3.00;99.90;;;;;;5013254;28;20207;-69
2023/11/29 07:55:54;;;;;;;15.97;11.57;;;3.00;99.90;;;;;;5013160;28;20207;-70
2023/11/29 07:58:20;;;;;;;15.27;12.60;;;2.90;99.90;;;;;;5012743;28;20176;-69
2023/11/29 08:00:46;;;;;;;14.07;11.50;;;2.90;99.90;;;;;;5012903;28;20208;-69
2023/11/29 08:03:14;;;;;;;15.20;11.70;;;2.90;99.90;;;;;;5012271;28;20706;-68
2023/11/29 08:05:41;;;;;;;13.07;11.67;;;2.90;99.90;;;;;;5013250;28;20200;-68
2023/11/29 08:08:07;;;;;;;14.93;10.87;;;3.00;99.90;;;;;;5013174;28;20184;-69
2023/11/29 08:10:32;;;;;;;16.37;11.67;;;2.90;99.90;;;;;;5012831;28;20636;-69
2023/11/29 08:12:58;;;;;;;16.73;11.53;;;3.00;99.90;;;;;;5013132;28;20176;-68
2023/11/29 08:15:24;;;;;;;19.63;11.93;;;3.00;99.90;;;;;;5012552;28;20242;-68
2023/11/29 08:17:50;;;;;;;16.03;10.33;;;3.00;99.90;;;;;;5013281;28;20275;-69
2023/11/29 08:20:16;;;;;;;12.63;10.53;;;3.00;99.90;;;;;;5012980;28;20271;-69
2023/11/29 08:22:41;;;;;;;11.93;10.07;;;3.00;99.90;;;;;;5013161;28;20184;-69
2023/11/29 08:25:07;;;;;;;14.70;11.00;;;3.10;99.90;;;;;;5013048;28;20619;-69
2023/11/29 08:27:34;;;;;;;12.13;10.47;;;3.10;99.90;;;;;;5012839;28;20195;-68
2023/11/29 08:30:00;;;;;;;12.87;9.40;;;3.20;99.90;;;;;;5012299;28;20184;-68
2023/11/29 08:32:27;;;;;;;15.17;10.50;;;3.20;99.90;;;;;;5012816;28;20199;-69
2023/11/29 08:34:52;;;;;;;12.10;10.87;;;3.30;99.90;;;;;;5012480;28;20277;-69
2023/11/29 08:37:18;;;;;;;12.27;10.73;;;3.30;99.90;;;;;;5014783;28;20219;-69
2023/11/29 08:39:44;;;;;;;11.60;10.40;;;3.30;99.90;;;;;;5012264;28;20182;-69
2023/11/29 08:42:11;;;;;;;10.30;9.20;;;3.30;99.90;;;;;;5012679;28;20172;-69
2023/11/29 08:44:37;;;;;;;14.83;10.47;;;3.40;99.90;;;;;;5012032;28;20180;-69
2023/11/29 08:47:03;;;;;;;14.20;10.53;;;3.40;99.90;;;;;;5012845;28;20591;-69
2023/11/29 08:49:29;;;;;;;15.57;10.33;;;3.50;99.90;;;;;;5012231;28;20176;-69
2023/11/29 08:51:55;;;;;;;11.90;10.10;;;3.50;99.90;;;;;;5012226;28;20699;-69
2023/11/29 08:54:22;;;;;;;16.80;10.00;;;3.50;99.90;;;;;;5012471;28;20165;-69
2023/11/29 08:56:47;;;;;;;10.80;9.40;;;3.60;99.90;;;;;;5012106;28;20235;-69
2023/11/29 08:59:13;;;;;;;10.57;9.50;;;3.60;99.90;;;;;;5012084;28;20607;-68
2023/11/29 09:01:40;;;;;;;10.80;9.77;;;3.70;99.90;;;;;;5012264;28;20242;-69
2023/11/29 09:04:05;;;;;;;10.73;9.63;;;3.80;99.90;;;;;;5012755;28;20173;-69
2023/11/29 09:06:31;;;;;;;11.37;9.00;;;3.90;99.90;;;;;;5013164;28;20204;-69
2023/11/29 09:08:58;;;;;;;10.17;9.13;;;4.00;99.90;;;;;;5010540;28;20266;-69
2023/11/29 09:11:24;;;;;;;9.87;8.87;;;4.10;99.90;;;;;;5011493;28;20210;-70
2023/11/29 09:13:50;;;;;;;17.27;9.90;;;4.20;99.90;;;;;;5010707;28;20664;-70
2023/11/29 09:16:16;;;;;;;9.83;8.93;;;4.20;99.90;;;;;;5012264;28;20215;-70
2023/11/29 09:18:45;;;;;;;9.10;8.00;;;4.20;99.90;;;;;;5011926;28;20176;-69
2023/11/29 09:21:10;;;;;;;9.57;8.67;;;4.20;99.90;;;;;;5011761;28;20224;-68
2023/11/29 09:23:37;;;;;;;8.20;7.40;;;4.10;99.90;;;;;;5011795;28;20184;-69
2023/11/29 09:26:03;;;;;;;11.17;9.53;;;4.10;99.90;;;;;;5011857;28;20281;-69
2023/11/29 09:28:29;;;;;;;13.33;8.30;;;4.10;99.90;;;;;;5011295;28;20246;-69
2023/11/29 09:30:55;;;;;;;9.13;8.23;;;4.10;99.90;;;;;;5011465;28;20180;-68
2023/11/29 09:33:21;;;;;;;8.53;7.83;;;4.10;99.90;;;;;;5012247;28;20255;-69
2023/11/29 09:35:47;;;;;;;10.77;9.60;;;4.00;99.90;;;;;;5011608;28;20204;-69
2023/11/29 09:38:13;;;;;;;10.87;8.30;;;4.00;99.90;;;;;;5011766;28;20203;-69
2023/11/29 09:40:39;;;;;;;9.73;8.70;;;4.00;99.90;;;;;;5010978;28;20180;-69
2023/11/29 09:43:07;;;;;;;9.27;8.37;;;4.40;99.90;;;;;;5011597;28;20176;-69
2023/11/29 09:45:33;;;;;;;10.17;7.97;;;5.00;99.90;;;;;;5011379;28;20570;-70
2023/11/29 09:48:00;;;;;;;9.67;7.40;;;5.60;99.90;;;;;;5011691;28;20238;-70
2023/11/29 09:50:27;;;;;;;9.67;8.10;;;5.70;99.90;;;;;;5011218;28;20179;-69
2023/11/29 09:53:00;;;;;;;9.77;8.70;;;5.50;99.90;;;;;;5011323;28;20250;-69
2023/11/29 09:55:27;;;;;;;11.70;7.60;;;5.40;99.90;;;;;;5010920;28;20215;-69
2023/11/29 09:57:53;;;;;;;8.07;7.33;;;5.10;99.90;;;;;;5011393;28;21180;-69
2023/11/29 10:00:19;;;;;;;9.10;7.90;;;4.80;99.90;;;;;;5011084;28;20579;-69
2023/11/29 10:02:44;;;;;;;8.13;6.93;;;4.50;99.90;;;;;;5011795;28;20263;-69
2023/11/29 10:05:14;;;;;;;9.33;8.37;;;4.20;99.90;;;;;;5011558;28;20227;-70
2023/11/29 10:07:41;;;;;;;9.20;8.00;;;4.00;99.90;;;;;;5011330;28;20169;-69
2023/11/29 10:10:07;;;;;;;8.53;7.73;;;3.90;99.90;;;;;;5011146;28;20183;-69
2023/11/29 10:12:37;;;;;;;7.40;6.70;;;3.80;99.90;;;;;;5011443;28;20640;-69
2023/11/29 10:15:02;;;;;;;9.60;8.50;;;3.70;99.90;;;;;;5011320;28;20659;-69
2023/11/29 10:17:28;;;;;;;10.87;9.00;;;3.70;99.90;;;;;;5011238;28;20238;-70
2023/11/29 10:19:57;;;;;;;9.50;8.60;;;3.70;99.90;;;;;;5011194;28;20652;-70
2023/11/29 10:22:24;;;;;;;9.80;8.87;;;3.60;99.90;;;;;;5011284;28;20206;-69
2023/11/29 10:24:49;;;;;;;10.20;8.10;;;3.60;99.90;;;;;;5011417;28;20172;-69
2023/11/29 10:27:18;;;;;;;10.70;9.60;;;3.60;99.90;;;;;;5011341;28;20183;-69
2023/11/29 10:29:44;;;;;;;10.30;9.30;;;3.70;99.90;;;;;;5011278;28;20199;-69
2023/11/29 10:32:11;;;;;;;12.70;9.47;;;3.80;99.90;;;;;;5011332;28;20219;-69
2023/11/29 10:34:37;;;;;;;13.50;9.77;;;3.90;99.90;;;;;;5010766;28;20188;-69
2023/11/29 10:37:05;;;;;;;8.03;7.33;;;4.10;99.90;;;;;;5011294;28;20519;-69
2023/11/29 10:39:33;;;;;;;10.80;9.20;;;4.10;99.90;;;;;;5011277;28;20205;-69
2023/11/29 10:42:00;;;;;;;10.73;9.67;;;4.10;99.90;;;;;;5014605;28;20191;-69
2023/11/29 10:44:31;;;;;;;10.93;9.30;;;4.10;99.90;;;;;;5014975;28;20207;-69
2023/11/29 10:47:18;;;;;;;15.27;10.20;;;4.20;99.90;;;;;;5014889;28;20196;-69
2023/11/29 10:49:49;;;;;;;11.10;10.00;;;4.30;99.90;;;;;;4994798;28;20172;-69
2023/11/29 10:52:18;;;;;;;12.70;9.83;;;4.50;99.90;;;;;;4993934;28;20672;-70
2023/11/29 10:54:48;;;;;;;9.77;8.73;;;4.60;99.90;;;;;;4993762;28;20192;-69
2023/11/29 10:57:21;;;;;;;9.17;8.40;;;4.90;99.90;;;;;;4994100;28;20259;-69
2023/11/29 10:59:53;;;;;;;10.03;8.20;;;5.10;99.90;;;;;;4995361;28;20181;-69
2023/11/29 11:02:19;;;;;;;9.10;8.30;;;5.00;99.90;;;;;;4994953;28;20249;-69
2023/11/29 11:05:00;;;;;;;12.33;8.30;;;5.00;40.70;;;;;;5011464;28;20184;-68
2023/11/29 11:07:42;;;;;;;9.23;8.33;;;5.00;99.90;;;;;;5011316;28;20219;-69
2023/11/29 11:10:09;;;;;;;8.43;7.70;;;5.00;1.00;;;;;;5014229;28;20191;-69
2023/11/29 11:12:36;;;;;;;8.50;7.77;;;5.00;1.00;;;;;;5013543;28;20357;-69
2023/11/29 11:15:07;;;;;;;9.43;8.37;;;4.80;1.00;;;;;;5014284;28;20208;-69
2023/11/29 11:17:34;;;;;;;8.27;7.50;;;4.60;99.90;;;;;;5013940;28;20220;-69
2023/11/29 11:20:06;;;;;;;9.27;8.43;;;4.50;99.90;;;;;;5013707;28;20204;-70
2023/11/29 11:22:48;;;;;;;9.53;8.67;;;4.40;1.00;;;;;;5013388;28;20177;-69
2023/11/29 11:25:16;;;;;;;10.60;9.60;;;4.30;99.90;;;;;;5014265;28;20246;-69
2023/11/29 11:27:47;;;;;;;10.43;8.73;;;4.30;1.00;;;;;;5014126;28;20208;-69
2023/11/29 11:30:17;;;;;;;13.10;9.57;;;4.20;1.00;;;;;;5013888;28;20200;-69
2023/11/29 11:32:49;;;;;;;11.20;9.53;;;4.20;1.00;;;;;;5013943;28;20617;-70
2023/11/29 11:35:18;;;;;;;10.13;9.10;;;4.20;1.00;;;;;;5014049;28;20231;-69
2023/11/29 11:37:44;;;;;;;10.33;9.23;;;4.10;1.00;;;;;;5013755;28;20180;-69
2023/11/29 11:40:11;;;;;;;10.03;9.13;;;4.20;1.00;;;;;;5013808;28;20179;-70
2023/11/29 11:42:37;;;;;;;10.33;9.03;;;4.20;1.00;;;;;;5014007;28;20183;-69
2023/11/29 11:45:04;;;;;;;9.93;8.27;;;4.20;1.00;;;;;;5013647;28;20204;-70
2023/11/29 11:47:30;;;;;;;9.23;8.47;;;4.30;1.00;;;;;;5013803;28;20268;-70
2023/11/29 11:49:56;;;;;;;9.83;8.83;;;4.30;99.90;;;;;;5014357;28;20271;-70
2023/11/29 11:52:22;;;;;;;9.20;8.30;;;4.40;99.90;;;;;;5014894;28;20247;-70
2023/11/29 11:54:48;;;;;;;11.03;8.63;;;4.40;1.00;;;;;;5014093;28;20648;-69
2023/11/29 11:57:15;;;;;;;8.93;8.07;;;4.40;1.00;;;;;;5014036;28;20245;-70
2023/11/29 11:59:41;;;;;;;8.73;8.03;;;4.50;1.00;;;;;;5013418;28;20177;-69
2023/11/29 12:02:07;;;;;;;8.40;7.67;;;4.50;1.00;;;;;;5013865;28;20169;-69
2023/11/29 12:04:33;;;;;;;8.73;7.93;;;4.50;1.00;;;;;;5013784;28;20180;-69
2023/11/29 12:06:59;;;;;;;8.00;7.27;;;4.50;99.90;;;;;;5028750;28;20283;-69
2023/11/29 12:09:26;;;;;;;8.40;7.47;;;4.60;99.90;;;;;;5013576;28;20234;-69
2023/11/29 12:12:15;;;;;;;10.27;8.53;;;4.60;99.90;;;;;;5013441;28;20263;-70
2023/11/29 12:14:45;;;;;;;7.40;6.80;;;4.60;99.90;;;;;;5013098;28;20168;-70
2023/11/29 12:17:12;;;;;;;7.80;6.80;;;4.70;99.90;;;;;;5013345;28;20271;-70
2023/11/29 12:19:42;;;;;;;9.67;7.33;;;4.70;99.90;;;;;;5012999;28;20168;-69
2023/11/29 12:22:08;;;;;;;7.57;6.97;;;4.60;99.90;;;;;;5013242;28;20176;-69
2023/11/29 12:24:47;;;;;;;8.00;6.97;;;4.70;1.00;;;;;;5013197;28;20666;-69
2023/11/29 12:27:17;;;;;;;7.30;6.60;;;4.70;99.90;;;;;;5013086;28;20172;-69
2023/11/29 12:29:47;;;;;;;7.83;7.03;;;4.70;6.40;;;;;;5012802;28;20172;-69
2023/11/29 12:32:14;;;;;;;7.33;6.60;;;4.70;99.90;;;;;;5013242;28;20173;-69
2023/11/29 12:34:41;;;;;;;8.47;7.30;;;4.70;99.90;;;;;;5013094;28;20173;-69
2023/11/29 12:37:14;;;;;;;9.63;7.33;;;4.70;99.90;;;;;;5010772;28;20238;-69
2023/11/29 12:39:41;;;;;;;7.57;6.87;;;4.70;1.00;;;;;;5012150;28;20200;-70
2023/11/29 12:42:09;;;;;;;10.97;7.70;;;4.70;99.90;;;;;;5012493;28;20540;-69
2023/11/29 12:44:35;;;;;;;7.37;6.70;;;4.70;99.90;;;;;;5012487;28;20587;-69